sensor_id;sensor_type;location;lat;lon;timestamp;pressure;altitude;pressure_sealevel;temperature;humidity
66627;BME280;53498;50.422;14.912;2023-02-26T00:01:17;98208.34;;;-0.54;97.00
66627;BME280;53498;50.422;14.912;2023-02-26T00:03:43;98210.25;;;-0.47;97.15
66627;BME280;53498;50.422;14.912;2023-02-26T00:06:08;98225.56;;;-0.47;97.42
66627;BME280;53498;50.422;14.912;2023-02-26T00:08:34;98217.19;;;-0.43;96.66
66627;BME280;53498;50.422;14.912;2023-02-26T00:11:00;98215.00;;;-0.59;96.76
66627;BME280;53498;50.422;14.912;2023-02-26T00:13:29;98226.84;;;-0.61;97.74
66627;BME280;53498;50.422;14.912;2023-02-26T00:15:58;98223.38;;;-0.63;97.25
66627;BME280;53498;50.422;14.912;2023-02-26T00:18:25;98221.38;;;-0.74;97.82
66627;BME280;53498;50.422;14.912;2023-02-26T00:20:51;98225.75;;;-0.70;98.67
66627;BME280;53498;50.422;14.912;2023-02-26T00:23:17;98226.56;;;-0.71;98.81
66627;BME280;53498;50.422;14.912;2023-02-26T00:25:43;98233.22;;;-0.76;98.51
66627;BME280;53498;50.422;14.912;2023-02-26T00:28:10;98232.31;;;-0.78;99.04
66627;BME280;53498;50.422;14.912;2023-02-26T00:30:35;98218.19;;;-0.66;98.84
66627;BME280;53498;50.422;14.912;2023-02-26T00:33:02;98228.16;;;-0.74;98.84
66627;BME280;53498;50.422;14.912;2023-02-26T00:35:28;98228.94;;;-0.77;99.93
66627;BME280;53498;50.422;14.912;2023-02-26T00:37:58;98232.22;;;-0.81;100.00
66627;BME280;53498;50.422;14.912;2023-02-26T00:40:43;98229.66;;;-0.81;100.00
66627;BME280;53498;50.422;14.912;2023-02-26T00:43:13;98224.22;;;-0.91;100.00
66627;BME280;53498;50.422;14.912;2023-02-26T00:54:15;98217.31;;;-0.94;100.00
66627;BME280;53498;50.422;14.912;2023-02-26T00:56:42;98223.25;;;-0.95;100.00
66627;BME280;53498;50.422;14.912;2023-02-26T00:59:08;98239.19;;;-1.02;100.00
66627;BME280;53498;50.422;14.912;2023-02-26T01:01:33;98229.09;;;-0.99;100.00
66627;BME280;53498;50.422;14.912;2023-02-26T01:03:59;98235.16;;;-0.96;100.00
66627;BME280;53498;50.422;14.912;2023-02-26T01:06:27;98239.19;;;-1.02;100.00
66627;BME280;53498;50.422;14.912;2023-02-26T01:09:02;98247.78;;;-1.00;100.00
66627;BME280;53498;50.422;14.912;2023-02-26T01:11:31;98243.28;;;-1.07;100.00
66627;BME280;53498;50.422;14.912;2023-02-26T01:13:59;98244.19;;;-1.05;100.00
66627;BME280;53498;50.422;14.912;2023-02-26T01:16:27;98249.22;;;-1.08;100.00
66627;BME280;53498;50.422;14.912;2023-02-26T01:19:04;98259.66;;;-1.01;100.00
66627;BME280;53498;50.422;14.912;2023-02-26T01:21:36;98249.41;;;-1.02;100.00
66627;BME280;53498;50.422;14.912;2023-02-26T01:24:10;98259.72;;;-0.99;100.00
66627;BME280;53498;50.422;14.912;2023-02-26T01:26:38;98254.66;;;-0.98;100.00
66627;BME280;53498;50.422;14.912;2023-02-26T01:29:04;98261.34;;;-1.01;100.00
66627;BME280;53498;50.422;14.912;2023-02-26T01:32:05;98262.91;;;-1.06;100.00
66627;BME280;53498;50.422;14.912;2023-02-26T01:37:23;98262.78;;;-1.09;100.00
66627;BME280;53498;50.422;14.912;2023-02-26T01:40:02;98264.63;;;-1.05;100.00
66627;BME280;53498;50.422;14.912;2023-02-26T01:42:38;98272.47;;;-0.99;100.00
66627;BME280;53498;50.422;14.912;2023-02-26T01:45:22;98274.94;;;-1.02;100.00
66627;BME280;53498;50.422;14.912;2023-02-26T01:50:20;98270.22;;;-0.90;100.00
66627;BME280;53498;50.422;14.912;2023-02-26T01:55:13;98282.94;;;-0.91;100.00
66627;BME280;53498;50.422;14.912;2023-02-26T01:57:38;98293.84;;;-0.97;100.00
66627;BME280;53498;50.422;14.912;2023-02-26T02:00:05;98279.31;;;-0.98;100.00
66627;BME280;53498;50.422;14.912;2023-02-26T02:02:30;98282.03;;;-0.94;100.00
66627;BME280;53498;50.422;14.912;2023-02-26T02:05:01;98295.47;;;-0.99;100.00
66627;BME280;53498;50.422;14.912;2023-02-26T02:07:29;98289.72;;;-0.92;100.00
66627;BME280;53498;50.422;14.912;2023-02-26T02:09:54;98296.53;;;-0.93;100.00
66627;BME280;53498;50.422;14.912;2023-02-26T02:12:40;98310.78;;;-0.99;100.00
66627;BME280;53498;50.422;14.912;2023-02-26T02:15:16;98309.91;;;-1.00;100.00
66627;BME280;53498;50.422;14.912;2023-02-26T02:23:10;98321.53;;;-1.08;100.00
66627;BME280;53498;50.422;14.912;2023-02-26T02:26:03;98326.84;;;-1.02;100.00
66627;BME280;53498;50.422;14.912;2023-02-26T02:31:10;98330.25;;;-1.01;100.00
66627;BME280;53498;50.422;14.912;2023-02-26T02:33:51;98335.56;;;-0.95;100.00
66627;BME280;53498;50.422;14.912;2023-02-26T02:36:30;98346.41;;;-1.02;100.00
66627;BME280;53498;50.422;14.912;2023-02-26T02:39:14;98339.97;;;-0.91;100.00
66627;BME280;53498;50.422;14.912;2023-02-26T02:41:46;98339.84;;;-0.94;100.00
66627;BME280;53498;50.422;14.912;2023-02-26T02:44:16;98342.41;;;-0.94;100.00
66627;BME280;53498;50.422;14.912;2023-02-26T02:46:43;98348.00;;;-1.06;100.00
66627;BME280;53498;50.422;14.912;2023-02-26T02:49:15;98355.66;;;-1.06;100.00
66627;BME280;53498;50.422;14.912;2023-02-26T02:51:50;98356.44;;;-1.07;100.00
66627;BME280;53498;50.422;14.912;2023-02-26T02:54:28;98355.09;;;-0.97;100.00
66627;BME280;53498;50.422;14.912;2023-02-26T02:56:59;98365.09;;;-1.03;100.00
66627;BME280;53498;50.422;14.912;2023-02-26T02:59:38;98374.59;;;-0.99;100.00
66627;BME280;53498;50.422;14.912;2023-02-26T03:02:15;98378.66;;;-1.04;100.00
66627;BME280;53498;50.422;14.912;2023-02-26T03:04:42;98377.97;;;-1.00;100.00
66627;BME280;53498;50.422;14.912;2023-02-26T03:07:09;98384.06;;;-0.95;100.00
66627;BME280;53498;50.422;14.912;2023-02-26T03:09:35;98387.81;;;-0.85;100.00
66627;BME280;53498;50.422;14.912;2023-02-26T03:12:01;98386.22;;;-0.82;100.00
66627;BME280;53498;50.422;14.912;2023-02-26T03:14:27;98392.88;;;-0.87;100.00
66627;BME280;53498;50.422;14.912;2023-02-26T03:22:51;98415.56;;;-0.95;100.00
66627;BME280;53498;50.422;14.912;2023-02-26T03:25:43;98415.78;;;-0.88;100.00
66627;BME280;53498;50.422;14.912;2023-02-26T03:28:19;98427.25;;;-1.01;100.00
66627;BME280;53498;50.422;14.912;2023-02-26T03:31:14;98427.59;;;-0.92;100.00
66627;BME280;53498;50.422;14.912;2023-02-26T03:33:59;98444.91;;;-0.83;100.00
66627;BME280;53498;50.422;14.912;2023-02-26T03:36:42;98452.84;;;-1.00;100.00
66627;BME280;53498;50.422;14.912;2023-02-26T03:39:16;98449.94;;;-0.85;100.00
66627;BME280;53498;50.422;14.912;2023-02-26T03:42:35;98459.47;;;-0.81;100.00
66627;BME280;53498;50.422;14.912;2023-02-26T03:44:41;98458.03;;;-0.73;99.50
66627;BME280;53498;50.422;14.912;2023-02-26T03:47:11;98459.81;;;-0.72;99.43
66627;BME280;53498;50.422;14.912;2023-02-26T03:49:45;98458.34;;;-0.63;99.23
66627;BME280;53498;50.422;14.912;2023-02-26T03:52:13;98466.88;;;-0.63;99.37
66627;BME280;53498;50.422;14.912;2023-02-26T03:54:47;98467.69;;;-0.89;99.47
66627;BME280;53498;50.422;14.912;2023-02-26T03:57:14;98465.88;;;-0.92;100.00
66627;BME280;53498;50.422;14.912;2023-02-26T03:59:40;98474.38;;;-0.93;100.00
66627;BME280;53498;50.422;14.912;2023-02-26T04:02:16;98476.63;;;-1.01;100.00
66627;BME280;53498;50.422;14.912;2023-02-26T04:04:54;98475.13;;;-0.96;100.00
66627;BME280;53498;50.422;14.912;2023-02-26T04:07:21;98474.38;;;-0.93;100.00
66627;BME280;53498;50.422;14.912;2023-02-26T04:09:49;98481.16;;;-0.94;100.00
66627;BME280;53498;50.422;14.912;2023-02-26T04:12:23;98483.09;;;-0.86;100.00
66627;BME280;53498;50.422;14.912;2023-02-26T04:14:49;98484.84;;;-0.85;100.00
66627;BME280;53498;50.422;14.912;2023-02-26T04:17:15;98483.59;;;-0.97;99.82
66627;BME280;53498;50.422;14.912;2023-02-26T04:19:40;98485.44;;;-0.93;100.00
66627;BME280;53498;50.422;14.912;2023-02-26T04:22:06;98492.28;;;-0.91;99.57
66627;BME280;53498;50.422;14.912;2023-02-26T04:24:31;98486.41;;;-0.89;99.18
66627;BME280;53498;50.422;14.912;2023-02-26T04:26:57;98497.16;;;-0.98;98.75
66627;BME280;53498;50.422;14.912;2023-02-26T04:29:23;98497.38;;;-0.91;98.99
66627;BME280;53498;50.422;14.912;2023-02-26T04:31:48;98498.81;;;-1.00;98.58
66627;BME280;53498;50.422;14.912;2023-02-26T04:34:14;98501.69;;;-0.90;99.06
66627;BME280;53498;50.422;14.912;2023-02-26T04:36:39;98504.69;;;-1.01;98.16
66627;BME280;53498;50.422;14.912;2023-02-26T04:39:05;98503.84;;;-1.01;98.24
66627;BME280;53498;50.422;14.912;2023-02-26T04:41:31;98504.56;;;-1.05;97.22
66627;BME280;53498;50.422;14.912;2023-02-26T04:43:57;98512.63;;;-1.17;97.43
66627;BME280;53498;50.422;14.912;2023-02-26T04:46:22;98518.59;;;-1.17;97.27
66627;BME280;53498;50.422;14.912;2023-02-26T04:48:48;98516.00;;;-1.18;96.79
66627;BME280;53498;50.422;14.912;2023-02-26T04:51:13;98514.47;;;-1.13;96.49
66627;BME280;53498;50.422;14.912;2023-02-26T04:53:42;98513.41;;;-0.96;96.25
66627;BME280;53498;50.422;14.912;2023-02-26T04:56:08;98517.44;;;-1.02;95.91
66627;BME280;53498;50.422;14.912;2023-02-26T04:58:33;98521.28;;;-0.89;96.25
66627;BME280;53498;50.422;14.912;2023-02-26T05:00:59;98519.59;;;-0.89;94.97
66627;BME280;53498;50.422;14.912;2023-02-26T05:03:24;98528.84;;;-0.93;94.77
66627;BME280;53498;50.422;14.912;2023-02-26T05:05:50;98529.06;;;-0.86;93.53
66627;BME280;53498;50.422;14.912;2023-02-26T05:08:16;98529.59;;;-0.95;94.37
66627;BME280;53498;50.422;14.912;2023-02-26T05:10:41;98540.16;;;-1.08;94.77
66627;BME280;53498;50.422;14.912;2023-02-26T05:13:07;98543.72;;;-1.05;95.92
66627;BME280;53498;50.422;14.912;2023-02-26T05:15:32;98553.50;;;-0.93;96.23
66627;BME280;53498;50.422;14.912;2023-02-26T05:17:58;98557.88;;;-0.90;96.00
66627;BME280;53498;50.422;14.912;2023-02-26T05:20:24;98557.56;;;-0.98;95.13
66627;BME280;53498;50.422;14.912;2023-02-26T05:22:49;98564.47;;;-0.96;95.70
66627;BME280;53498;50.422;14.912;2023-02-26T05:25:15;98565.44;;;-0.92;95.49
66627;BME280;53498;50.422;14.912;2023-02-26T05:27:41;98567.38;;;-0.86;94.70
66627;BME280;53498;50.422;14.912;2023-02-26T05:30:08;98573.22;;;-0.89;95.22
66627;BME280;53498;50.422;14.912;2023-02-26T05:32:35;98572.41;;;-0.88;95.04
66627;BME280;53498;50.422;14.912;2023-02-26T05:35:00;98580.06;;;-0.88;95.41
66627;BME280;53498;50.422;14.912;2023-02-26T05:37:26;98584.38;;;-0.87;95.83
66627;BME280;53498;50.422;14.912;2023-02-26T05:39:52;98586.44;;;-0.77;96.06
66627;BME280;53498;50.422;14.912;2023-02-26T05:42:17;98595.16;;;-0.94;95.97
66627;BME280;53498;50.422;14.912;2023-02-26T05:44:43;98597.06;;;-0.88;96.20
66627;BME280;53498;50.422;14.912;2023-02-26T05:47:09;98597.03;;;-0.90;96.87
66627;BME280;53498;50.422;14.912;2023-02-26T05:49:34;98598.28;;;-1.01;96.36
66627;BME280;53498;50.422;14.912;2023-02-26T05:52:00;98603.50;;;-0.98;96.03
66627;BME280;53498;50.422;14.912;2023-02-26T05:54:25;98608.09;;;-0.89;96.03
66627;BME280;53498;50.422;14.912;2023-02-26T05:56:51;98609.19;;;-0.83;96.99
66627;BME280;53498;50.422;14.912;2023-02-26T05:59:17;98615.81;;;-0.88;96.84
66627;BME280;53498;50.422;14.912;2023-02-26T06:01:42;98608.72;;;-0.95;98.25
66627;BME280;53498;50.422;14.912;2023-02-26T06:04:08;98624.06;;;-0.95;97.75
66627;BME280;53498;50.422;14.912;2023-02-26T06:06:34;98633.34;;;-0.75;97.82
66627;BME280;53498;50.422;14.912;2023-02-26T06:08:59;98627.31;;;-0.77;97.93
66627;BME280;53498;50.422;14.912;2023-02-26T06:11:27;98639.44;;;-0.94;97.63
66627;BME280;53498;50.422;14.912;2023-02-26T06:13:54;98639.72;;;-0.86;97.68
66627;BME280;53498;50.422;14.912;2023-02-26T06:16:20;98641.56;;;-0.82;97.81
66627;BME280;53498;50.422;14.912;2023-02-26T06:18:46;98646.91;;;-0.76;98.25
66627;BME280;53498;50.422;14.912;2023-02-26T06:21:12;98649.34;;;-0.79;97.27
66627;BME280;53498;50.422;14.912;2023-02-26T06:23:37;98652.25;;;-0.70;95.92
66627;BME280;53498;50.422;14.912;2023-02-26T06:26:04;98661.59;;;-0.70;95.34
66627;BME280;53498;50.422;14.912;2023-02-26T06:28:30;98666.09;;;-0.64;95.00
66627;BME280;53498;50.422;14.912;2023-02-26T06:30:55;98666.19;;;-0.61;93.44
66627;BME280;53498;50.422;14.912;2023-02-26T06:33:21;98674.44;;;-0.68;92.60
66627;BME280;53498;50.422;14.912;2023-02-26T06:35:47;98682.22;;;-0.43;93.25
66627;BME280;53498;50.422;14.912;2023-02-26T06:38:13;98682.56;;;-0.34;92.73
66627;BME280;53498;50.422;14.912;2023-02-26T06:40:39;98687.97;;;-0.49;91.98
66627;BME280;53498;50.422;14.912;2023-02-26T06:43:05;98686.81;;;-0.34;92.10
66627;BME280;53498;50.422;14.912;2023-02-26T06:45:31;98696.69;;;-0.43;92.28
66627;BME280;53498;50.422;14.912;2023-02-26T06:47:56;98699.78;;;-0.51;92.12
66627;BME280;53498;50.422;14.912;2023-02-26T06:50:22;98701.59;;;-0.48;92.27
66627;BME280;53498;50.422;14.912;2023-02-26T06:53:16;98709.25;;;-0.48;91.46
